createdAt,value
2022-08-07T00:00:03.014Z,1.10
2022-08-07T00:02:44.506Z,0.70
2022-08-07T00:05:16.531Z,0.70
2022-08-07T00:07:43.601Z,1.20
2022-08-07T00:10:27.078Z,0.90
2022-08-07T00:13:00.320Z,1.00
2022-08-07T00:15:46.702Z,0.60
2022-08-07T00:18:35.386Z,0.90
2022-08-07T00:21:55.886Z,0.98
2022-08-07T00:23:56.430Z,0.85
2022-08-07T00:26:58.445Z,0.82
2022-08-07T00:29:31.472Z,1.08
2022-08-07T00:32:32.550Z,0.63
2022-08-07T00:35:02.052Z,0.40
2022-08-07T00:37:47.800Z,1.60
2022-08-07T00:40:36.635Z,1.80
2022-08-07T00:44:00.978Z,1.65
2022-08-07T00:46:04.581Z,0.90
2022-08-07T00:51:06.244Z,1.23
2022-08-07T00:53:55.005Z,1.30
2022-08-07T00:56:33.977Z,1.05
2022-08-07T00:59:09.878Z,1.33
2022-08-07T01:01:44.746Z,1.35
2022-08-07T01:04:26.844Z,0.70
2022-08-07T01:07:00.894Z,1.10
2022-08-07T01:10:04.729Z,0.65
2022-08-07T01:12:29.758Z,0.93
2022-08-07T01:15:03.654Z,0.80
2022-08-07T01:17:43.989Z,0.88
2022-08-07T01:20:21.130Z,0.80
2022-08-07T01:23:09.007Z,1.13
2022-08-07T01:25:55.615Z,0.73
2022-08-07T01:28:27.110Z,1.63
2022-08-07T01:30:56.383Z,2.10
2022-08-07T01:33:56.084Z,1.55
2022-08-07T01:36:21.803Z,1.13
2022-08-07T01:42:07.360Z,1.13
2022-08-07T01:44:34.828Z,2.05
2022-08-07T01:47:14.535Z,1.80
2022-08-07T01:50:00.760Z,1.45
2022-08-07T01:52:49.437Z,1.70
2022-08-07T01:55:24.231Z,1.20
2022-08-07T01:58:06.377Z,1.10
2022-08-07T02:00:49.092Z,0.95
2022-08-07T02:03:21.756Z,1.00
2022-08-07T02:05:59.828Z,0.85
2022-08-07T02:08:33.787Z,0.98
2022-08-07T02:11:03.802Z,1.02
2022-08-07T02:13:57.880Z,1.13
2022-08-07T02:16:32.959Z,1.10
2022-08-07T02:19:05.597Z,1.33
2022-08-07T02:21:56.948Z,1.08
2022-08-07T02:24:29.545Z,0.98
2022-08-07T02:27:02.795Z,0.60
2022-08-07T02:29:43.395Z,1.10
2022-08-07T02:32:23.416Z,0.65
2022-08-07T02:34:57.469Z,0.80
2022-08-07T02:37:27.087Z,0.70
2022-08-07T02:40:11.757Z,0.90
2022-08-07T02:43:02.374Z,0.73
2022-08-07T02:45:58.899Z,0.82
2022-08-07T02:48:31.695Z,0.98
2022-08-07T02:51:07.037Z,0.98
2022-08-07T02:53:54.438Z,0.95
2022-08-07T02:56:25.969Z,0.90
2022-08-07T02:59:12.472Z,0.90
2022-08-07T03:01:47.271Z,0.90
2022-08-07T03:04:24.743Z,1.00
2022-08-07T03:07:07.227Z,1.00
2022-08-07T03:09:52.811Z,0.90
2022-08-07T03:12:39.170Z,1.02
2022-08-07T03:15:10.016Z,1.00
2022-08-07T03:17:53.380Z,0.90
2022-08-07T03:20:24.658Z,1.13
2022-08-07T03:22:59.101Z,1.00
2022-08-07T03:28:38.418Z,0.90
2022-08-07T03:31:42.677Z,1.10
2022-08-07T03:34:22.537Z,1.23
2022-08-07T03:36:59.404Z,0.90
2022-08-07T03:39:46.084Z,1.05
2022-08-07T03:42:52.124Z,0.85
2022-08-07T03:45:31.598Z,0.98
2022-08-07T03:48:09.980Z,1.20
2022-08-07T03:50:57.743Z,1.00
2022-08-07T03:53:50.218Z,0.95
2022-08-07T03:59:30.549Z,1.00
2022-08-07T04:02:14.296Z,0.80
2022-08-07T04:04:45.196Z,0.85
2022-08-07T04:07:35.927Z,1.10
2022-08-07T04:10:04.716Z,1.20
2022-08-07T04:12:45.668Z,0.90
2022-08-07T04:15:23.960Z,1.10
2022-08-07T04:18:57.225Z,0.90
2022-08-07T04:20:55.002Z,1.30
2022-08-07T04:23:23.281Z,0.90
2022-08-07T04:26:21.665Z,1.17
2022-08-07T04:28:55.106Z,1.10
2022-08-07T04:31:38.476Z,1.30
2022-08-07T04:34:36.487Z,0.93
2022-08-07T04:37:20.574Z,1.17
2022-08-07T04:39:47.974Z,1.02
2022-08-07T04:42:19.632Z,1.27
2022-08-07T04:44:54.350Z,1.10
2022-08-07T04:47:57.045Z,1.20
2022-08-07T04:50:41.914Z,1.40
2022-08-07T04:53:40.270Z,1.15
2022-08-07T04:58:11.156Z,0.90
2022-08-07T05:00:12.396Z,1.10
2022-08-07T05:02:16.865Z,1.52
2022-08-07T05:04:53.792Z,1.10
2022-08-07T05:07:48.359Z,0.90
2022-08-07T05:10:23.216Z,1.17
2022-08-07T05:14:44.473Z,1.20
2022-08-07T05:16:13.628Z,1.10
2022-08-07T05:18:47.232Z,0.82
2022-08-07T05:21:25.294Z,1.30
2022-08-07T05:24:11.844Z,1.00
2022-08-07T05:26:39.599Z,1.20
2022-08-07T05:29:08.354Z,1.00
2022-08-07T05:31:41.093Z,1.13
2022-08-07T05:34:19.254Z,1.33
2022-08-07T05:36:52.758Z,1.02
2022-08-07T05:40:06.941Z,0.77
2022-08-07T05:42:12.367Z,1.10
2022-08-07T05:44:41.501Z,1.02
2022-08-07T05:47:37.924Z,0.73
2022-08-07T05:50:03.257Z,0.95
2022-08-07T05:52:32.719Z,1.10
2022-08-07T05:55:07.249Z,1.02
2022-08-07T05:57:42.361Z,1.10
2022-08-07T06:00:16.327Z,0.90
2022-08-07T06:02:47.788Z,1.35
2022-08-07T06:05:15.813Z,1.00
2022-08-07T06:08:14.461Z,0.98
2022-08-07T06:10:30.372Z,1.00
2022-08-07T06:12:57.081Z,1.00
2022-08-07T06:15:39.488Z,1.00
2022-08-07T06:18:12.205Z,0.88
2022-08-07T06:20:50.276Z,1.05
2022-08-07T06:24:37.936Z,1.10
2022-08-07T06:26:16.715Z,0.98
2022-08-07T06:28:50.265Z,1.02
2022-08-07T06:31:20.110Z,0.80
2022-08-07T06:33:50.911Z,1.00
2022-08-07T06:36:34.861Z,1.20
2022-08-07T06:40:16.632Z,0.85
2022-08-07T06:42:04.602Z,1.13
2022-08-07T06:44:36.581Z,1.10
2022-08-07T06:47:10.141Z,1.00
2022-08-07T06:49:50.984Z,1.05
2022-08-07T06:52:31.884Z,0.88
2022-08-07T06:55:33.771Z,1.10
2022-08-07T06:58:00.642Z,1.27
2022-08-07T07:00:34.658Z,0.90
2022-08-07T07:03:08.894Z,1.10
2022-08-07T07:06:04.725Z,1.20
2022-08-07T07:08:29.588Z,0.90
2022-08-07T07:10:58.810Z,0.80
2022-08-07T07:13:56.330Z,0.90
2022-08-07T07:16:23.729Z,0.80
2022-08-07T07:19:11.461Z,1.00
2022-08-07T07:22:04.721Z,0.93
2022-08-07T07:24:38.305Z,0.90
2022-08-07T07:27:13.395Z,1.00
2022-08-07T07:30:09.413Z,1.27
2022-08-07T07:32:40.888Z,0.80
2022-08-07T07:35:12.021Z,1.00
2022-08-07T07:37:49.482Z,1.33
2022-08-07T07:40:25.519Z,1.00
2022-08-07T07:42:55.600Z,0.95
2022-08-07T07:46:53.349Z,1.00
2022-08-07T07:48:24.316Z,1.35
2022-08-07T07:51:07.739Z,1.10
2022-08-07T07:53:50.355Z,0.90
2022-08-07T07:56:30.125Z,1.20
2022-08-07T07:59:01.603Z,1.27
2022-08-07T08:02:01.997Z,0.98
2022-08-07T08:04:18.394Z,1.20
2022-08-07T08:06:52.130Z,1.20
2022-08-07T08:09:24.129Z,1.00
2022-08-07T08:12:01.854Z,1.40
2022-08-07T08:14:36.564Z,1.23
2022-08-07T08:18:36.859Z,0.98
2022-08-07T08:20:18.487Z,1.40
2022-08-07T08:23:08.418Z,0.98
2022-08-07T08:25:56.769Z,1.20
2022-08-07T08:28:38.667Z,1.10
2022-08-07T08:31:14.792Z,0.77
2022-08-07T08:33:55.685Z,0.90
2022-08-07T08:36:30.047Z,0.90
2022-08-07T08:39:01.991Z,1.40
2022-08-07T08:41:57.718Z,1.00
2022-08-07T08:44:36.254Z,0.90
2022-08-07T08:47:25.085Z,0.82
2022-08-07T08:50:35.377Z,0.80
2022-08-07T08:53:32.636Z,0.65
2022-08-07T08:56:22.865Z,0.60
2022-08-07T08:59:12.853Z,0.70
2022-08-07T09:02:00.165Z,0.60
2022-08-07T09:04:31.643Z,0.80
2022-08-07T09:07:23.033Z,0.68
2022-08-07T09:09:58.735Z,0.88
2022-08-07T09:12:53.581Z,0.80
2022-08-07T09:16:24.256Z,0.77
2022-08-07T09:19:03.591Z,0.82
2022-08-07T09:22:10.122Z,0.82
2022-08-07T09:25:12.091Z,0.80
2022-08-07T09:30:01.134Z,1.00
2022-08-07T09:31:38.688Z,0.80
2022-08-07T09:34:21.500Z,0.70
2022-08-07T09:37:01.657Z,0.80
2022-08-07T09:39:53.769Z,0.50
2022-08-07T09:42:58.645Z,0.60
2022-08-07T09:47:50.443Z,0.60
2022-08-07T09:50:00.886Z,0.60
2022-08-07T09:52:10.497Z,1.02
2022-08-07T09:54:46.738Z,2.35
2022-08-07T09:57:37.530Z,1.00
2022-08-07T10:00:16.494Z,0.70
2022-08-07T10:04:05.007Z,0.70
2022-08-07T10:06:24.623Z,0.57
2022-08-07T10:09:23.718Z,0.60
2022-08-07T10:12:21.591Z,0.98
2022-08-07T10:14:58.395Z,1.10
2022-08-07T10:18:02.818Z,0.80
2022-08-07T10:20:50.305Z,1.00
2022-08-07T10:24:06.856Z,1.52
2022-08-07T10:26:56.350Z,0.73
2022-08-07T10:30:06.243Z,0.82
2022-08-07T10:32:51.008Z,0.40
2022-08-07T10:35:25.774Z,0.70
2022-08-07T10:38:35.324Z,0.60
2022-08-07T10:41:08.694Z,1.33
2022-08-07T10:43:48.019Z,0.93
2022-08-07T10:46:30.895Z,2.00
2022-08-07T10:49:04.166Z,3.50
2022-08-07T10:51:38.887Z,1.08
2022-08-07T10:54:17.856Z,0.80
2022-08-07T10:57:34.827Z,0.50
2022-08-07T11:00:36.901Z,0.70
2022-08-07T11:03:23.337Z,0.70
2022-08-07T11:06:26.926Z,0.95
2022-08-07T11:10:08.996Z,0.93
2022-08-07T11:12:37.854Z,0.40
2022-08-07T11:15:17.371Z,0.80
2022-08-07T11:17:50.097Z,1.33
2022-08-07T11:20:42.885Z,0.70
2022-08-07T11:23:38.774Z,0.88
2022-08-07T11:26:20.228Z,0.75
2022-08-07T11:28:58.866Z,1.98
2022-08-07T11:31:42.394Z,0.93
2022-08-07T11:34:31.990Z,0.70
2022-08-07T11:37:18.177Z,0.80
2022-08-07T11:40:03.603Z,1.98
2022-08-07T11:45:50.195Z,0.70
2022-08-07T11:48:40.729Z,0.60
2022-08-07T11:51:41.819Z,0.60
2022-08-07T11:54:37.447Z,0.60
2022-08-07T11:57:20.724Z,0.50
2022-08-07T12:00:29.022Z,2.28
2022-08-07T12:03:42.300Z,0.75
2022-08-07T12:06:39.668Z,0.70
2022-08-07T12:09:24.714Z,0.88
2022-08-07T12:12:09.277Z,0.90
2022-08-07T12:14:56.277Z,0.80
2022-08-07T12:20:32.325Z,0.60
2022-08-07T12:23:14.466Z,0.68
2022-08-07T12:26:22.419Z,0.80
2022-08-07T12:29:03.839Z,0.73
2022-08-07T12:32:04.845Z,0.63
2022-08-07T12:34:38.773Z,1.13
2022-08-07T12:37:16.594Z,0.80
2022-08-07T12:39:52.513Z,0.82
2022-08-07T12:42:27.242Z,0.90
2022-08-07T12:44:58.390Z,1.45
2022-08-07T12:47:51.030Z,0.60
2022-08-07T12:50:39.902Z,0.80
2022-08-07T12:53:25.210Z,0.80
2022-08-07T12:56:26.606Z,0.60
2022-08-07T12:58:57.083Z,0.85
2022-08-07T13:01:40.851Z,0.75
2022-08-07T13:04:43.530Z,0.50
2022-08-07T13:08:11.855Z,0.60
2022-08-07T13:11:08.536Z,0.60
2022-08-07T13:13:53.815Z,1.17
2022-08-07T13:17:02.313Z,0.70
2022-08-07T13:19:54.578Z,0.50
2022-08-07T13:22:36.268Z,0.60
2022-08-07T13:25:10.485Z,0.57
2022-08-07T13:28:12.706Z,0.65
2022-08-07T13:30:52.107Z,1.00
2022-08-07T13:34:29.724Z,0.60
2022-08-07T13:36:47.842Z,0.60
2022-08-07T13:39:49.216Z,0.80
2022-08-07T13:45:11.786Z,2.15
2022-08-07T13:48:06.538Z,1.23
2022-08-07T13:50:36.632Z,4.75
2022-08-07T13:53:23.706Z,0.90
2022-08-07T13:55:54.827Z,1.35
2022-08-07T13:58:43.360Z,1.02
2022-08-07T14:01:27.046Z,0.60
2022-08-07T14:04:05.212Z,0.80
2022-08-07T14:06:40.685Z,0.93
2022-08-07T14:10:02.927Z,2.58
2022-08-07T14:12:10.273Z,0.77
2022-08-07T14:14:43.860Z,1.77
2022-08-07T14:18:12.671Z,0.70
2022-08-07T14:20:42.100Z,1.15
2022-08-07T14:23:14.706Z,0.43
2022-08-07T14:26:05.526Z,1.40
2022-08-07T14:28:58.978Z,0.70
2022-08-07T14:31:25.979Z,1.08
2022-08-07T14:34:11.955Z,0.60
2022-08-07T14:36:56.264Z,0.95
2022-08-07T14:40:16.664Z,0.68
2022-08-07T14:42:19.721Z,0.63
2022-08-07T14:44:53.538Z,0.90
2022-08-07T14:47:23.165Z,0.80
2022-08-07T14:52:40.589Z,1.52
2022-08-07T14:55:10.671Z,0.90
2022-08-07T14:57:58.110Z,1.00
2022-08-07T15:00:31.661Z,0.73
2022-08-07T15:03:18.620Z,0.80
2022-08-07T15:05:54.850Z,0.60
2022-08-07T15:08:50.247Z,0.50
2022-08-07T15:11:54.285Z,0.50
2022-08-07T15:14:20.695Z,0.50
2022-08-07T15:16:54.824Z,0.80
2022-08-07T15:22:22.159Z,0.70
2022-08-07T15:25:15.442Z,0.90
2022-08-07T15:28:32.962Z,0.70
2022-08-07T15:33:33.858Z,1.70
2022-08-07T15:36:07.610Z,1.52
2022-08-07T15:38:51.268Z,1.92
2022-08-07T15:42:42.511Z,2.05
2022-08-07T15:44:20.836Z,0.80
2022-08-07T15:46:55.867Z,1.10
2022-08-07T15:52:30.288Z,0.85
2022-08-07T15:55:02.871Z,0.82
2022-08-07T15:57:39.892Z,0.82
2022-08-07T16:00:32.157Z,2.63
2022-08-07T16:03:47.322Z,2.00
2022-08-07T16:06:09.396Z,1.77
2022-08-07T16:08:42.421Z,1.70
2022-08-07T16:11:39.968Z,0.85
2022-08-07T16:14:36.658Z,0.82
2022-08-07T16:18:01.448Z,0.73
2022-08-07T16:20:33.954Z,1.20
2022-08-07T16:23:53.542Z,2.63
2022-08-07T16:26:30.856Z,1.00
2022-08-07T16:30:10.206Z,0.68
2022-08-07T16:32:34.498Z,0.70
2022-08-07T16:35:51.700Z,0.70
2022-08-07T16:38:57.298Z,0.50
2022-08-07T16:41:29.296Z,0.60
2022-08-07T16:44:53.609Z,0.82
2022-08-07T16:47:51.472Z,0.95
2022-08-07T16:50:48.212Z,0.85
2022-08-07T16:54:01.977Z,0.95
2022-08-07T16:56:54.708Z,0.80
2022-08-07T16:59:46.629Z,1.50
2022-08-07T17:02:28.352Z,0.68
2022-08-07T17:06:01.755Z,1.50
2022-08-07T17:08:09.265Z,1.48
2022-08-07T17:10:54.624Z,1.83
2022-08-07T17:13:41.786Z,1.40
2022-08-07T17:16:43.673Z,1.02
2022-08-07T17:20:02.178Z,1.00
2022-08-07T17:22:48.659Z,1.98
2022-08-07T17:25:51.363Z,0.77
2022-08-07T17:28:19.641Z,1.20
2022-08-07T17:31:00.636Z,0.70
2022-08-07T17:34:15.003Z,1.27
2022-08-07T17:36:57.725Z,1.05
2022-08-07T17:39:58.436Z,0.85
2022-08-07T17:42:36.033Z,1.08
2022-08-07T17:45:31.601Z,1.15
2022-08-07T17:48:31.070Z,0.80
2022-08-07T17:51:59.871Z,1.00
2022-08-07T17:54:53.644Z,0.73
2022-08-07T17:57:56.105Z,0.80
2022-08-07T18:00:27.549Z,1.25
2022-08-07T18:03:18.586Z,1.02
2022-08-07T18:06:01.814Z,1.20
2022-08-07T18:08:36.299Z,1.00
2022-08-07T18:12:17.930Z,0.98
2022-08-07T18:15:02.938Z,1.10
2022-08-07T18:18:08.259Z,1.05
2022-08-07T18:21:40.104Z,1.33
2022-08-07T18:24:28.457Z,0.93
2022-08-07T18:27:25.603Z,0.88
2022-08-07T18:30:31.596Z,1.13
2022-08-07T18:33:16.123Z,1.08
2022-08-07T18:35:55.793Z,0.95
2022-08-07T18:38:59.082Z,1.25
2022-08-07T18:41:44.915Z,1.17
2022-08-07T18:45:09.083Z,0.85
2022-08-07T18:50:39.073Z,1.15
2022-08-07T18:53:48.718Z,1.30
2022-08-07T18:56:33.683Z,1.10
2022-08-07T18:59:47.061Z,1.05
2022-08-07T19:02:34.610Z,1.67
2022-08-07T19:06:04.179Z,1.10
2022-08-07T19:08:28.956Z,1.45
2022-08-07T19:11:36.730Z,1.77
2022-08-07T19:14:20.335Z,1.08
2022-08-07T19:17:08.063Z,1.20
2022-08-07T19:19:58.612Z,1.20
2022-08-07T19:22:48.046Z,1.33
2022-08-07T19:26:23.199Z,1.30
2022-08-07T19:28:30.536Z,1.30
2022-08-07T19:31:37.221Z,1.90
2022-08-07T19:36:43.758Z,1.48
2022-08-07T19:39:56.910Z,1.50
2022-08-07T19:42:24.569Z,1.90
2022-08-07T19:44:57.253Z,1.58
2022-08-07T19:47:36.789Z,2.17
2022-08-07T19:50:41.250Z,2.30
2022-08-07T19:53:00.958Z,1.48
2022-08-07T19:55:56.540Z,1.52
2022-08-07T19:58:28.392Z,1.50
2022-08-07T20:00:59.837Z,1.15
2022-08-07T20:03:35.010Z,1.27
2022-08-07T20:06:05.059Z,2.33
2022-08-07T20:08:35.679Z,2.33
2022-08-07T20:11:10.292Z,3.08
2022-08-07T20:13:50.251Z,2.15
2022-08-07T20:16:36.223Z,2.38
2022-08-07T20:19:10.027Z,2.50
2022-08-07T20:21:46.793Z,2.30
2022-08-07T20:24:35.771Z,3.67
2022-08-07T20:27:11.767Z,5.25
2022-08-07T20:29:58.400Z,5.32
2022-08-07T20:32:40.076Z,4.97
2022-08-07T20:35:16.075Z,3.70
2022-08-07T20:37:58.329Z,11.32
2022-08-07T20:40:32.184Z,8.70
2022-08-07T20:43:02.248Z,2.75
2022-08-07T20:46:24.418Z,1.40
2022-08-07T20:48:28.620Z,1.50
2022-08-07T20:51:02.244Z,1.67
2022-08-07T20:54:04.482Z,2.10
2022-08-07T20:56:26.666Z,1.98
2022-08-07T20:58:55.868Z,1.40
2022-08-07T21:01:26.732Z,1.60
2022-08-07T21:04:22.656Z,2.03
2022-08-07T21:06:53.645Z,2.20
2022-08-07T21:09:24.537Z,1.60
2022-08-07T21:11:57.638Z,1.30
2022-08-07T21:14:33.395Z,1.30
2022-08-07T21:18:02.747Z,1.52
2022-08-07T21:20:04.913Z,1.10
2022-08-07T21:22:39.446Z,1.65
2022-08-07T21:25:29.025Z,1.20
2022-08-07T21:28:16.775Z,2.00
2022-08-07T21:31:49.711Z,1.30
2022-08-07T21:34:31.942Z,1.70
2022-08-07T21:37:07.989Z,1.50
2022-08-07T21:40:27.384Z,1.52
2022-08-07T21:43:47.124Z,1.50
2022-08-07T21:46:31.646Z,1.60
2022-08-07T21:49:21.132Z,1.50
2022-08-07T21:52:11.819Z,1.40
2022-08-07T21:54:50.421Z,1.80
2022-08-07T21:57:45.168Z,1.67
2022-08-07T22:00:24.787Z,1.45
2022-08-07T22:02:51.870Z,1.80
2022-08-07T22:05:45.841Z,1.48
2022-08-07T22:08:18.807Z,1.58
2022-08-07T22:11:02.495Z,1.33
2022-08-07T22:13:52.594Z,1.27
2022-08-07T22:16:47.720Z,1.33
2022-08-07T22:19:30.707Z,1.63
2022-08-07T22:22:20.803Z,1.70
2022-08-07T22:25:10.899Z,1.67
2022-08-07T22:28:24.621Z,1.50
2022-08-07T22:30:53.165Z,2.05
2022-08-07T22:33:52.707Z,1.50
2022-08-07T22:36:20.284Z,1.65
2022-08-07T22:38:59.233Z,1.80
2022-08-07T22:42:03.135Z,1.85
2022-08-07T22:44:34.474Z,1.42
2022-08-07T22:47:28.187Z,1.45
2022-08-07T22:50:32.997Z,1.42
2022-08-07T22:54:06.607Z,1.60
2022-08-07T22:56:39.980Z,2.53
2022-08-07T22:59:47.216Z,2.53
2022-08-07T23:02:48.785Z,1.80
2022-08-07T23:06:07.813Z,1.38
2022-08-07T23:08:22.161Z,1.70
2022-08-07T23:11:12.954Z,2.00
2022-08-07T23:14:16.146Z,1.48
2022-08-07T23:17:19.836Z,1.70
2022-08-07T23:20:40.474Z,1.60
2022-08-07T23:24:04.269Z,1.50
2022-08-07T23:26:54.960Z,1.42
2022-08-07T23:30:37.608Z,1.80
2022-08-07T23:34:34.650Z,1.83
2022-08-07T23:36:10.661Z,1.70
2022-08-07T23:38:57.156Z,1.90
2022-08-07T23:41:47.436Z,2.25
2022-08-07T23:44:51.315Z,1.95
2022-08-07T23:47:47.937Z,1.88
2022-08-07T23:50:36.670Z,1.65
2022-08-07T23:53:49.925Z,1.45
2022-08-07T23:56:21.708Z,1.60
2022-08-07T23:59:10.828Z,2.15
